Time;durP1;ratioP1;P1;durP2;ratioP2;P2;SDS_P1;SDS_P2;PMS_P1;PMS_P2;Temp;Humidity;BMP_temperature;BMP_pressure;BME280_temperature;BME280_humidity;BME280_pressure;Samples;Min_cycle;Max_cycle;Signal;HPM_P1;HPM_P2
2021/09/25 00:01:28;;;;;;;6.37;4.67;;;;;;;13.51;100.00;99277.80;1753023;80;21536;-58
2021/09/25 00:03:58;;;;;;;5.30;4.40;;;;;;;13.34;100.00;99296.51;1756621;80;21469;-58
2021/09/25 00:06:24;;;;;;;5.27;4.20;;;;;;;13.07;100.00;99280.36;1757174;80;21743;-64
2021/09/25 00:08:52;;;;;;;5.63;4.40;;;;;;;13.07;100.00;99280.36;1758610;80;21973;-67
2021/09/25 00:11:20;;;;;;;6.17;4.50;;;;;;;13.02;100.00;99288.06;1762482;80;21158;-58
2021/09/25 00:13:46;;;;;;;6.27;4.03;;;;;;;13.02;100.00;99288.06;1762467;80;21562;-58
2021/09/25 00:16:13;;;;;;;6.73;4.43;;;;;;;12.98;100.00;99283.78;1764856;80;21946;-58
2021/09/25 00:18:39;;;;;;;6.73;4.47;;;;;;;12.99;100.00;99284.58;1758860;80;21269;-68
2021/09/25 00:21:06;;;;;;;5.73;4.03;;;;;;;13.00;100.00;99288.30;1762785;80;22950;-58
2021/09/25 00:23:32;;;;;;;6.23;4.40;;;;;;;13.08;100.00;99288.49;1761282;80;21531;-58
2021/09/25 00:25:58;;;;;;;6.97;5.40;;;;;;;13.42;100.00;99286.22;1761053;80;21316;-60
2021/09/25 00:28:25;;;;;;;6.50;5.13;;;;;;;13.42;100.00;99286.22;1763344;80;21440;-58
2021/09/25 00:30:51;;;;;;;7.97;5.40;;;;;;;13.79;100.00;99291.56;1761761;80;21410;-67
2021/09/25 00:33:19;;;;;;;7.63;5.37;;;;;;;13.43;100.00;99293.05;1763334;80;21571;-60
2021/09/25 00:35:46;;;;;;;6.17;5.20;;;;;;;13.78;100.00;99303.04;1763557;80;21247;-58
2021/09/25 00:38:12;;;;;;;7.70;5.70;;;;;;;13.78;100.00;99303.04;1763450;80;21439;-58
2021/09/25 00:40:39;;;;;;;9.00;5.40;;;;;;;13.84;100.00;99303.45;1761944;80;21990;-58
2021/09/25 00:43:05;;;;;;;16.97;9.40;;;;;;;13.84;100.00;99303.45;1763059;80;21427;-66
2021/09/25 00:45:32;;;;;;;11.57;7.97;;;;;;;13.87;100.00;99299.07;1763214;80;21513;-59
2021/09/25 00:47:59;;;;;;;12.17;7.87;;;;;;;13.87;100.00;99305.63;1761701;80;21289;-58
2021/09/25 00:50:26;;;;;;;13.23;8.67;;;;;;;13.99;100.00;99298.27;1762699;80;21492;-59
2021/09/25 00:52:54;;;;;;;10.57;7.30;;;;;;;14.00;100.00;99297.24;1763813;80;21515;-67
2021/09/25 00:55:22;;;;;;;13.13;8.50;;;;;;;14.00;100.00;99297.24;1762488;80;21421;-64
2021/09/25 00:57:53;;;;;;;12.03;7.97;;;;;;;13.94;100.00;99299.45;1761563;80;21469;-59
2021/09/25 01:00:19;;;;;;;11.05;7.58;;;;;;;14.16;100.00;99297.05;1763959;80;21207;-59
2021/09/25 01:02:45;;;;;;;11.37;7.43;;;;;;;14.13;100.00;99294.40;1762969;80;21597;-64
2021/09/25 01:05:15;;;;;;;10.30;7.43;;;;;;;14.09;100.00;99295.38;1762065;80;21411;-62
2021/09/25 01:07:40;;;;;;;9.40;7.30;;;;;;;14.16;100.00;99292.61;1762192;80;21893;-59
2021/09/25 01:10:08;;;;;;;10.60;8.23;;;;;;;14.06;100.00;99299.75;1761418;80;21443;-58
2021/09/25 01:12:34;;;;;;;10.60;7.70;;;;;;;14.06;100.00;99299.75;1763189;80;22153;-58
2021/09/25 01:15:01;;;;;;;9.70;8.23;;;;;;;14.10;100.00;99301.41;1760782;80;21252;-66
2021/09/25 01:17:27;;;;;;;13.17;8.17;;;;;;;14.08;100.00;99305.55;1763806;80;21626;-59
2021/09/25 01:19:54;;;;;;;9.77;7.37;;;;;;;13.96;100.00;99314.45;1761622;80;21371;-58
2021/09/25 01:22:21;;;;;;;9.47;7.80;;;;;;;14.09;100.00;99314.20;1763580;80;21947;-58
2021/09/25 01:24:47;;;;;;;10.73;8.20;;;;;;;14.10;100.00;99314.51;1762648;80;21480;-59
2021/09/25 01:27:13;;;;;;;12.50;8.30;;;;;;;14.10;100.00;99314.51;1762582;80;21295;-63
2021/09/25 01:29:40;;;;;;;10.07;7.93;;;;;;;13.90;100.00;99312.20;1761770;80;21555;-58
2021/09/25 01:32:07;;;;;;;9.47;8.17;;;;;;;13.79;100.00;99317.75;1760957;80;22992;-58
2021/09/25 01:34:34;;;;;;;9.30;7.60;;;;;;;14.03;100.00;99318.55;1756157;80;21749;-59
2021/09/25 01:37:01;;;;;;;10.40;7.40;;;;;;;14.23;100.00;99316.88;1711348;82;22012;-66
2021/09/25 01:39:28;;;;;;;11.60;7.03;;;;;;;14.53;100.00;99318.57;1725285;81;21509;-64
2021/09/25 01:41:55;;;;;;;10.80;8.07;;;;;;;14.56;100.00;99316.28;1715916;81;22917;-58
2021/09/25 01:44:22;;;;;;;11.37;7.93;;;;;;;14.47;100.00;99318.97;1710984;82;21889;-58
2021/09/25 01:46:50;;;;;;;10.00;7.37;;;;;;;14.47;100.00;99318.97;1711030;82;21568;-62
2021/09/25 01:49:16;;;;;;;12.13;8.77;;;;;;;14.24;100.00;99328.95;1707431;82;21273;-58
2021/09/25 01:51:43;;;;;;;10.83;7.87;;;;;;;14.51;100.00;99344.25;1710174;81;22582;-59
2021/09/25 01:54:09;;;;;;;12.50;8.87;;;;;;;14.51;100.00;99344.25;1708511;82;21701;-58
2021/09/25 01:56:35;;;;;;;9.10;7.97;;;;;;;14.34;100.00;99342.80;1662698;81;21631;-60
2021/09/25 01:59:02;;;;;;;11.33;9.27;;;;;;;14.44;100.00;99342.23;1710331;81;21680;-64
2021/09/25 02:01:28;;;;;;;11.03;8.17;;;;;;;14.39;100.00;99344.73;1712602;81;21663;-61
2021/09/25 02:03:54;;;;;;;10.37;9.27;;;;;;;14.39;100.00;99344.73;1705833;82;21972;-59
2021/09/25 02:06:21;;;;;;;9.50;8.30;;;;;;;14.63;100.00;99352.89;1713058;82;21855;-59
2021/09/25 02:08:48;;;;;;;11.73;9.13;;;;;;;14.98;100.00;99350.16;1714220;82;21458;-58
2021/09/25 02:11:14;;;;;;;12.13;8.87;;;;;;;14.98;100.00;99350.16;1706931;82;21737;-59
2021/09/25 02:13:41;;;;;;;9.33;8.17;;;;;;;15.05;100.00;99344.77;1707402;82;22983;-61
2021/09/25 02:16:08;;;;;;;9.57;8.50;;;;;;;15.17;100.00;99352.08;1734114;80;21276;-59
2021/09/25 02:18:35;;;;;;;11.13;8.43;;;;;;;15.31;100.00;99353.39;1713256;81;21578;-59
2021/09/25 02:21:02;;;;;;;10.70;8.67;;;;;;;15.47;100.00;99357.59;1703071;82;21762;-65
2021/09/25 02:23:31;;;;;;;9.37;7.77;;;;;;;15.37;100.00;99353.47;1703671;82;21677;-59
2021/09/25 02:26:00;;;;;;;8.67;7.73;;;;;;;15.45;100.00;99365.69;1708655;82;22979;-59
2021/09/25 02:28:28;;;;;;;9.03;8.13;;;;;;;15.45;100.00;99365.69;1705376;81;21639;-58
2021/09/25 02:30:55;;;;;;;9.87;8.87;;;;;;;15.57;100.00;99366.45;1709779;82;21734;-62
2021/09/25 02:33:22;;;;;;;9.30;8.37;;;;;;;15.30;100.00;99364.93;1709118;82;22087;-59
2021/09/25 02:35:49;;;;;;;10.53;9.10;;;;;;;14.04;100.00;99386.16;1707999;82;21830;-59
2021/09/25 02:38:17;;;;;;;10.83;9.73;;;;;;;14.04;100.00;99386.16;1712872;82;21807;-58
2021/09/25 02:40:44;;;;;;;10.57;9.00;;;;;;;13.80;100.00;99385.34;1709964;82;21798;-58
2021/09/25 02:43:10;;;;;;;11.73;9.00;;;;;;;13.77;100.00;99387.89;1712338;81;21585;-62
2021/09/25 02:45:37;;;;;;;10.60;8.80;;;;;;;13.65;100.00;99390.20;1710488;82;22297;-58
2021/09/25 02:48:04;;;;;;;10.67;9.20;;;;;;;13.76;100.00;99398.60;1712476;81;21460;-58
2021/09/25 02:50:31;;;;;;;11.97;10.00;;;;;;;13.72;100.00;99398.25;1712542;82;21666;-59
2021/09/25 02:52:57;;;;;;;9.73;8.73;;;;;;;13.72;100.00;99398.25;1708506;81;21526;-60
2021/09/25 02:55:24;;;;;;;11.90;9.30;;;;;;;13.88;100.00;99398.90;1711192;82;21676;-58
2021/09/25 02:57:50;;;;;;;10.47;8.63;;;;;;;14.10;100.00;99403.61;1708464;82;22351;-66
2021/09/25 03:00:19;;;;;;;10.00;8.70;;;;;;;14.10;100.00;99403.61;1705719;82;21546;-64
2021/09/25 03:02:46;;;;;;;11.70;8.73;;;;;;;14.23;100.00;99403.89;1712836;82;21719;-58
2021/09/25 03:05:12;;;;;;;10.50;8.53;;;;;;;14.16;100.00;99404.51;1710084;82;21583;-60
2021/09/25 03:07:39;;;;;;;11.53;9.10;;;;;;;14.08;100.00;99405.64;1711544;82;21838;-58
2021/09/25 03:10:07;;;;;;;9.67;8.67;;;;;;;14.11;100.00;99413.06;1708275;82;22296;-66
2021/09/25 03:12:33;;;;;;;10.63;8.40;;;;;;;14.12;100.00;99409.41;1712622;82;23288;-60
2021/09/25 03:15:00;;;;;;;10.63;9.50;;;;;;;13.88;100.00;99410.69;1683372;83;21768;-66
2021/09/25 03:17:27;;;;;;;11.83;9.20;;;;;;;13.64;100.00;99414.29;1676965;83;21672;-62
2021/09/25 03:19:53;;;;;;;11.20;9.27;;;;;;;13.68;100.00;99418.05;1715257;81;22106;-58
2021/09/25 03:22:20;;;;;;;11.40;9.57;;;;;;;13.69;100.00;99422.27;1710378;82;22707;-67
2021/09/25 03:24:46;;;;;;;10.80;9.60;;;;;;;13.69;100.00;99422.27;1710823;82;22116;-59
2021/09/25 03:27:12;;;;;;;11.53;9.20;;;;;;;13.72;100.00;99424.95;1713334;82;21755;-63
2021/09/25 03:29:39;;;;;;;10.30;9.13;;;;;;;13.44;100.00;99433.38;1711935;82;21476;-58
2021/09/25 03:32:06;;;;;;;10.60;9.37;;;;;;;13.43;100.00;99431.79;1709364;82;22362;-58
2021/09/25 03:34:33;;;;;;;10.60;9.43;;;;;;;13.44;100.00;99433.38;1713572;82;21452;-67
2021/09/25 03:37:00;;;;;;;15.13;10.60;;;;;;;13.56;100.00;99428.50;1709195;81;21531;-59
2021/09/25 03:39:26;;;;;;;13.53;10.57;;;;;;;13.65;100.00;99434.21;1710356;82;21678;-58
2021/09/25 03:41:53;;;;;;;12.47;10.57;;;;;;;13.85;100.00;99432.09;1713188;82;22321;-59
2021/09/25 03:44:19;;;;;;;13.20;11.73;;;;;;;13.85;100.00;99432.09;1713661;82;21714;-59
2021/09/25 03:46:46;;;;;;;13.77;11.47;;;;;;;13.77;100.00;99428.48;1711022;82;21396;-59
2021/09/25 03:49:12;;;;;;;14.20;12.07;;;;;;;13.77;100.00;99428.48;1709749;82;21567;-64
2021/09/25 03:51:39;;;;;;;13.53;11.20;;;;;;;13.86;100.00;99433.71;1711578;82;21737;-59
2021/09/25 03:54:05;;;;;;;17.70;10.70;;;;;;;14.00;100.00;99429.05;1708996;82;22639;-59
2021/09/25 03:56:32;;;;;;;12.50;11.17;;;;;;;14.22;100.00;99437.17;1710189;83;21766;-58
2021/09/25 03:58:58;;;;;;;16.17;12.03;;;;;;;14.28;100.00;99431.52;1709971;81;21741;-58
2021/09/25 04:01:25;;;;;;;14.37;11.73;;;;;;;14.51;100.00;99434.72;1708012;82;21760;-58
2021/09/25 04:03:51;;;;;;;14.87;10.80;;;;;;;15.02;100.00;99438.41;1694886;82;22945;-59
2021/09/25 04:06:18;;;;;;;15.43;10.53;;;;;;;15.57;100.00;99443.14;1699603;82;21140;-60
2021/09/25 04:08:44;;;;;;;11.57;10.17;;;;;;;16.07;100.00;99440.33;1699025;82;21093;-67
2021/09/25 04:11:10;;;;;;;12.43;11.13;;;;;;;15.85;100.00;99451.53;1696533;82;21322;-61
2021/09/25 04:13:37;;;;;;;15.67;13.17;;;;;;;15.68;100.00;99448.07;1694631;82;21586;-64
2021/09/25 04:16:04;;;;;;;13.83;11.67;;;;;;;15.55;100.00;99449.13;1701079;82;21133;-60
2021/09/25 04:18:31;;;;;;;13.33;11.53;;;;;;;15.39;100.00;99455.14;1699445;82;21046;-60
2021/09/25 04:20:57;;;;;;;14.00;11.87;;;;;;;15.13;100.00;99459.89;1699876;82;21017;-59
2021/09/25 04:23:24;;;;;;;13.27;11.87;;;;;;;15.20;100.00;99456.62;1699485;82;21127;-67
2021/09/25 04:25:50;;;;;;;13.23;11.83;;;;;;;14.90;100.00;99466.50;1697976;82;21076;-59
2021/09/25 04:28:17;;;;;;;12.90;11.03;;;;;;;14.70;100.00;99468.16;1700334;82;21200;-59
2021/09/25 04:30:43;;;;;;;11.83;9.90;;;;;;;14.54;100.00;99467.02;1698817;82;21005;-59
2021/09/25 04:33:10;;;;;;;13.10;11.70;;;;;;;14.38;100.00;99465.05;1701799;82;21015;-59
2021/09/25 04:35:38;;;;;;;13.90;12.40;;;;;;;14.16;100.00;99468.72;1697637;82;21251;-67
2021/09/25 04:38:04;;;;;;;13.87;12.10;;;;;;;14.14;100.00;99469.48;1700023;82;21017;-60
2021/09/25 04:40:31;;;;;;;15.70;12.60;;;;;;;14.16;100.00;99472.14;1698843;82;21134;-59
2021/09/25 04:42:59;;;;;;;13.00;11.60;;;;;;;14.34;100.00;99475.98;1701363;82;20930;-59
2021/09/25 04:45:26;;;;;;;12.83;11.43;;;;;;;14.69;100.00;99481.78;1700568;82;21048;-69
2021/09/25 04:47:53;;;;;;;14.83;13.30;;;;;;;14.41;100.00;99487.69;1697679;82;21602;-60
2021/09/25 04:50:19;;;;;;;14.80;12.80;;;;;;;14.38;100.00;99492.06;1695561;82;21515;-59
2021/09/25 04:52:46;;;;;;;14.47;12.20;;;;;;;14.44;100.00;99488.55;1698526;82;21502;-60
2021/09/25 04:55:13;;;;;;;14.53;12.03;;;;;;;14.23;100.00;99491.19;1699447;82;22186;-68
2021/09/25 04:57:39;;;;;;;13.67;12.10;;;;;;;14.25;100.00;99494.91;1697440;82;20989;-66
2021/09/25 05:00:07;;;;;;;13.87;12.47;;;;;;;14.26;100.00;99488.64;1694650;82;21437;-59
2021/09/25 05:02:34;;;;;;;15.23;13.63;;;;;;;14.47;100.00;99492.52;1703779;82;21085;-65
2021/09/25 05:05:01;;;;;;;14.40;13.00;;;;;;;14.48;100.00;99492.83;1712846;82;21144;-59
2021/09/25 05:07:27;;;;;;;15.70;13.60;;;;;;;14.63;100.00;99498.45;1689183;82;21508;-59
2021/09/25 05:09:54;;;;;;;15.23;12.57;;;;;;;14.89;100.00;99493.27;1721424;82;21159;-58
2021/09/25 05:12:20;;;;;;;17.07;13.77;;;;;;;14.96;100.00;99499.16;1727015;82;21534;-60
2021/09/25 05:14:47;;;;;;;16.13;14.33;;;;;;;15.21;100.00;99492.86;1713686;82;21028;-60
2021/09/25 05:17:13;;;;;;;14.20;12.47;;;;;;;15.60;100.00;99484.68;1700931;82;21158;-66
2021/09/25 05:19:41;;;;;;;14.77;13.27;;;;;;;15.77;100.00;99484.25;1701716;82;21703;-61
2021/09/25 05:22:08;;;;;;;15.40;13.27;;;;;;;15.84;100.00;99488.58;1699520;82;21443;-60
2021/09/25 05:24:34;;;;;;;16.13;14.43;;;;;;;15.89;100.00;99491.28;1704271;82;21017;-62
2021/09/25 05:27:01;;;;;;;16.50;14.50;;;;;;;16.12;100.00;99489.05;1698517;82;21103;-59
2021/09/25 05:29:28;;;;;;;14.30;12.80;;;;;;;16.09;100.00;99490.83;1695974;82;21250;-60
2021/09/25 05:32:01;;;;;;;17.30;14.33;;;;;;;16.16;100.00;99485.69;1698991;82;21040;-65
2021/09/25 05:34:25;;;;;;;16.70;14.93;;;;;;;16.28;100.00;99483.78;1698854;82;21596;-60
2021/09/25 05:36:54;;;;;;;18.13;16.23;;;;;;;16.29;100.00;99489.34;1705307;82;21561;-61
2021/09/25 05:39:20;;;;;;;16.13;14.30;;;;;;;16.62;100.00;99495.60;1701996;82;21096;-69
2021/09/25 05:41:47;;;;;;;17.43;13.97;;;;;;;16.99;100.00;99495.89;1701237;82;21057;-60
2021/09/25 05:44:13;;;;;;;16.40;14.70;;;;;;;17.72;100.00;99491.19;1694073;82;21048;-60
2021/09/25 05:46:40;;;;;;;18.87;14.37;;;;;;;18.07;100.00;99493.12;1700539;82;21021;-61
2021/09/25 05:49:06;;;;;;;20.20;14.07;;;;;;;18.12;100.00;99488.70;1699198;82;20990;-60
2021/09/25 05:51:32;;;;;;;20.50;15.00;;;;;;;18.23;100.00;99479.83;1701347;82;21531;-66
2021/09/25 05:53:59;;;;;;;19.73;13.60;;;;;;;18.42;100.00;99484.72;1697978;82;21150;-64
2021/09/25 05:56:25;;;;;;;19.43;13.07;;;;;;;18.55;100.00;99488.75;1704117;82;21609;-65
2021/09/25 05:58:52;;;;;;;17.97;14.43;;;;;;;18.52;100.00;99494.00;1702217;82;21151;-61
2021/09/25 06:01:18;;;;;;;12.97;11.63;;;;;;;18.48;100.00;99492.92;1700607;82;20922;-62
2021/09/25 06:03:45;;;;;;;15.23;13.63;;;;;;;18.53;100.00;99494.30;1717776;81;21076;-69
2021/09/25 06:06:11;;;;;;;13.77;12.37;;;;;;;18.46;100.00;99501.10;1712467;81;21284;-62
2021/09/25 06:08:38;;;;;;;14.17;12.67;;;;;;;18.42;100.00;99502.66;1714874;81;20944;-61
2021/09/25 06:11:04;;;;;;;13.60;12.20;;;;;;;18.52;100.00;99506.41;1717085;81;20953;-63
2021/09/25 06:13:31;;;;;;;13.80;12.27;;;;;;;18.93;100.00;99504.84;1716542;81;21913;-62
2021/09/25 06:15:57;;;;;;;11.87;10.77;;;;;;;19.90;100.00;99503.89;1716744;81;20996;-67
2021/09/25 06:18:23;;;;;;;11.10;10.00;;;;;;;20.95;100.00;99511.27;1712942;81;21109;-63
2021/09/25 06:20:50;;;;;;;11.00;9.90;;;;;;;22.03;100.00;99507.55;1761755;79;21504;-61
2021/09/25 06:23:17;;;;;;;10.10;8.90;;;;;;;22.73;100.00;99507.22;1752664;79;20871;-61
2021/09/25 06:25:43;;;;;;;11.00;9.90;;;;;;;22.89;100.00;99503.35;1754344;79;21125;-62
2021/09/25 06:28:10;;;;;;;11.70;9.50;;;;;;;22.54;100.00;99509.29;1750141;80;21043;-70
2021/09/25 06:30:42;;;;;;;11.50;10.40;;;;;;;22.48;100.00;99517.58;1748558;80;21052;-62
2021/09/25 06:33:09;;;;;;;11.23;10.23;;;;;;;22.42;100.00;99519.47;1750710;80;20934;-63
2021/09/25 06:35:37;;;;;;;11.10;9.87;;;;;;;22.41;100.00;99527.73;1750529;80;20938;-62
2021/09/25 06:38:04;;;;;;;10.17;9.23;;;;;;;21.96;100.00;99537.59;1756551;79;21004;-71
2021/09/25 06:40:30;;;;;;;10.50;9.40;;;;;;;21.62;97.77;99533.80;1759488;79;21084;-63
2021/09/25 06:42:57;;;;;;;10.53;9.50;;;;;;;21.52;100.00;99538.38;1757311;79;21179;-63
2021/09/25 06:45:30;;;;;;;9.30;7.90;;;;;;;22.23;100.00;99534.50;1757227;79;21463;-63
2021/09/25 06:47:54;;;;;;;9.83;8.83;;;;;;;22.95;100.00;99531.47;1746972;79;21133;-65
2021/09/25 06:50:22;;;;;;;11.07;9.80;;;;;;;23.53;97.66;99545.17;1706337;81;21099;-64
2021/09/25 06:52:49;;;;;;;9.63;8.73;;;;;;;23.52;86.01;99546.22;1710687;81;21031;-64
2021/09/25 06:55:15;;;;;;;10.10;9.10;;;;;;;23.59;86.05;99548.00;1711575;81;21246;-67
2021/09/25 06:57:42;;;;;;;10.40;9.40;;;;;;;23.36;77.74;99554.94;1711211;81;21494;-65
2021/09/25 07:00:09;;;;;;;12.00;9.77;;;;;;;22.57;78.38;99560.50;1708252;81;21072;-72
2021/09/25 07:02:39;;;;;;;9.00;8.20;;;;;;;22.15;90.11;99565.63;1704344;81;21516;-65
2021/09/25 07:05:08;;;;;;;9.78;8.78;;;;;;;22.42;92.66;99563.28;1705547;82;20992;-62
2021/09/25 07:07:34;;;;;;;8.17;7.33;;;;;;;22.93;90.96;99572.17;1708366;82;21113;-63
2021/09/25 07:10:03;;;;;;;9.10;7.50;;;;;;;23.45;83.46;99565.73;1704813;82;20977;-75
2021/09/25 07:12:32;;;;;;;8.37;7.57;;;;;;;24.06;76.54;99565.50;1709982;82;21004;-62
2021/09/25 07:14:58;;;;;;;7.25;6.55;;;;;;;24.41;67.37;99574.28;1706630;82;21099;-63
2021/09/25 07:17:25;;;;;;;7.70;6.95;;;;;;;24.64;62.95;99577.90;1707901;82;20996;-68
2021/09/25 07:19:52;;;;;;;7.78;7.00;;;;;;;24.78;60.44;99581.94;1708623;82;21100;-66
2021/09/25 07:22:19;;;;;;;8.28;7.15;;;;;;;24.96;61.15;99587.74;1709879;82;20981;-74
2021/09/25 07:24:45;;;;;;;8.98;7.35;;;;;;;25.46;57.15;99585.20;1702545;81;21097;-63
2021/09/25 07:27:12;;;;;;;8.88;7.90;;;;;;;25.89;55.13;99591.53;1706500;81;21082;-64
2021/09/25 07:29:38;;;;;;;10.18;7.35;;;;;;;25.87;50.60;99603.59;1708243;82;20922;-62
2021/09/25 07:32:06;;;;;;;7.87;7.08;;;;;;;25.44;50.45;99594.04;1708006;82;21081;-63
2021/09/25 07:34:33;;;;;;;9.58;8.68;;;;;;;24.98;50.48;99612.22;1705862;82;21031;-67
2021/09/25 07:36:59;;;;;;;9.00;8.10;;;;;;;24.44;49.99;99615.00;1706714;82;21123;-64
2021/09/25 07:39:26;;;;;;;10.18;9.18;;;;;;;24.20;52.24;99612.93;1705136;82;21138;-63
2021/09/25 07:41:52;;;;;;;8.50;7.70;;;;;;;24.09;55.04;99613.61;1709171;82;21025;-64
2021/09/25 07:44:19;;;;;;;9.55;8.55;;;;;;;24.40;56.34;99617.21;1709499;82;21137;-63
2021/09/25 07:46:45;;;;;;;8.50;7.70;;;;;;;24.50;53.98;99615.70;1705137;82;21018;-67
2021/09/25 07:49:11;;;;;;;9.68;8.68;;;;;;;24.86;53.99;99615.91;1706589;82;21132;-65
2021/09/25 07:51:38;;;;;;;10.32;9.23;;;;;;;25.18;50.77;99616.96;1708739;82;21656;-64
2021/09/25 07:54:06;;;;;;;10.65;9.55;;;;;;;25.70;48.77;99614.88;1708509;82;20926;-64
2021/09/25 07:56:34;;;;;;;10.07;9.07;;;;;;;25.27;48.18;99625.88;1707856;82;21154;-67
2021/09/25 07:59:00;;;;;;;9.85;8.85;;;;;;;24.94;49.57;99627.77;1707751;82;21503;-64
2021/09/25 08:01:27;;;;;;;9.53;8.53;;;;;;;25.09;49.78;99630.17;1717763;81;21089;-72
2021/09/25 08:03:53;;;;;;;10.50;9.50;;;;;;;25.41;49.14;99639.98;1771269;80;21129;-64
2021/09/25 08:06:19;;;;;;;11.00;9.90;;;;;;;25.57;48.00;99639.17;1750552;81;21656;-66
2021/09/25 08:08:46;;;;;;;10.80;9.80;;;;;;;25.11;47.59;99649.34;1751369;81;21787;-70
2021/09/25 08:11:13;;;;;;;11.17;10.13;;;;;;;24.86;47.82;99657.23;1745859;81;20937;-60
2021/09/25 08:13:39;;;;;;;12.17;10.10;;;;;;;24.62;48.64;99662.66;1744956;81;21462;-66
2021/09/25 08:16:06;;;;;;;12.20;10.90;;;;;;;24.66;48.23;99660.21;1767918;79;21100;-65
2021/09/25 08:18:32;;;;;;;12.27;10.33;;;;;;;24.38;49.28;99661.41;1763133;80;20940;-63
2021/09/25 08:20:59;;;;;;;11.20;10.10;;;;;;;24.31;49.51;99670.84;1760199;79;21124;-66
2021/09/25 08:23:26;;;;;;;10.63;9.43;;;;;;;24.02;50.42;99677.89;1765109;80;21071;-63
2021/09/25 08:25:53;;;;;;;9.67;8.67;;;;;;;23.73;51.57;99674.52;1759151;80;20960;-64
2021/09/25 08:28:20;;;;;;;10.47;9.43;;;;;;;23.77;52.13;99674.20;1760486;80;20973;-64
2021/09/25 08:30:47;;;;;;;11.73;9.63;;;;;;;23.72;52.57;99672.41;1768753;79;20937;-63
2021/09/25 08:33:13;;;;;;;10.07;9.07;;;;;;;23.93;53.53;99682.79;1774696;79;22332;-65
2021/09/25 08:35:39;;;;;;;10.17;9.17;;;;;;;24.55;52.28;99680.09;1770333;79;21002;-85
2021/09/25 08:38:06;;;;;;;10.90;9.80;;;;;;;24.88;50.61;99685.70;1766848;79;21014;-64
2021/09/25 08:40:32;;;;;;;10.37;8.73;;;;;;;25.28;49.84;99683.47;1773345;79;21959;-63
2021/09/25 08:42:59;;;;;;;12.37;9.53;;;;;;;25.65;48.04;99681.72;1774157;79;20994;-63
2021/09/25 08:45:26;;;;;;;10.50;9.47;;;;;;;25.21;48.00;99682.52;1771239;79;21116;-63
2021/09/25 08:47:55;;;;;;;10.03;8.90;;;;;;;25.07;47.62;99687.54;1775377;79;21024;-65
2021/09/25 08:50:22;;;;;;;9.77;8.33;;;;;;;24.84;48.67;99683.38;1773688;79;21042;-72
2021/09/25 08:52:49;;;;;;;10.20;9.10;;;;;;;23.49;52.85;99678.49;1773600;79;20970;-63
2021/09/25 08:55:15;;;;;;;11.17;8.77;;;;;;;23.33;54.27;99675.17;1767297;79;21009;-63
2021/09/25 08:57:42;;;;;;;9.57;7.77;;;;;;;22.85;54.04;99680.92;1762733;79;21145;-63
2021/09/25 09:00:26;;;;;;;9.20;8.07;;;;;;;22.48;57.45;99680.37;1749806;80;20956;-81
2021/09/25 09:02:53;;;;;;;8.43;7.53;;;;;;;22.26;60.77;99678.64;1721681;79;21066;-80
2021/09/25 09:05:31;;;;;;;9.30;8.23;;;;;;;21.92;63.24;99674.00;1763441;79;21096;-72
2021/09/25 09:08:02;;;;;;;8.10;7.20;;;;;;;21.95;67.48;99669.48;1761306;79;21002;-63
2021/09/25 09:10:34;;;;;;;10.13;7.77;;;;;;;21.90;63.20;99664.20;1763348;79;21806;-64
2021/09/25 09:13:01;;;;;;;10.77;7.90;;;;;;;21.73;62.33;99653.13;1765030;79;20956;-65
2021/09/25 09:15:36;;;;;;;9.03;7.43;;;;;;;21.47;67.65;99655.84;1761043;80;21067;-66
2021/09/25 09:18:03;;;;;;;7.97;7.17;;;;;;;21.19;67.38;99655.89;1760634;80;20943;-66
2021/09/25 09:20:31;;;;;;;10.20;7.13;;;;;;;21.24;70.81;99657.73;1734600;80;20982;-74
2021/09/25 09:23:15;;;;;;;8.13;6.77;;;;;;;21.44;74.08;99652.94;1770253;79;21144;-66
2021/09/25 09:25:42;;;;;;;9.33;6.80;;;;;;;21.91;71.16;99655.17;1769722;80;21078;-65
2021/09/25 09:28:14;;;;;;;8.93;6.20;;;;;;;22.29;67.75;99655.53;1765713;79;22364;-66
2021/09/25 09:30:49;;;;;;;7.70;6.83;;;;;;;22.63;62.22;99658.22;1766953;79;21047;-67
2021/09/25 09:33:41;;;;;;;9.90;6.73;;;;;;;23.11;62.57;99659.72;1770442;79;20936;-63
2021/09/25 09:36:27;;;;;;;9.03;6.95;;;;;;;23.65;57.27;99646.64;1770409;79;21876;-71
2021/09/25 09:39:16;;;;;;;9.50;6.80;;;;;;;23.97;54.46;99648.65;1768426;79;21009;-64
2021/09/25 09:41:58;;;;;;;9.67;6.40;;;;;;;24.01;52.52;99658.98;1771141;79;21125;-62
2021/09/25 09:44:33;;;;;;;;;;;;;;;24.36;50.19;99651.59;1728589;81;21023;-64
2021/09/25 09:47:02;;;;;;;6.73;5.50;;;;;;;24.69;48.94;99658.30;1701166;83;20300;-66
2021/09/25 09:49:32;;;;;;;7.83;6.40;;;;;;;24.73;47.65;99661.42;1702526;83;21145;-64
2021/09/25 09:52:13;;;;;;;7.45;6.08;;;;;;;24.87;46.97;99668.68;1703584;83;21047;-64
2021/09/25 09:54:43;;;;;;;8.23;6.22;;;;;;;25.13;46.37;99662.41;1708795;83;21034;-76
2021/09/25 09:57:18;;;;;;;6.40;5.15;;;;;;;25.48;46.98;99668.95;1704687;83;21515;-66
2021/09/25 09:59:49;;;;;;;8.30;5.80;;;;;;;25.83;45.96;99675.48;1695632;83;21087;-66
2021/09/25 10:02:16;;;;;;;6.97;5.40;;;;;;;26.26;43.71;99669.78;1761594;79;21126;-71
2021/09/25 10:04:43;;;;;;;7.40;5.80;;;;;;;26.67;42.62;99677.68;1769182;79;21065;-74
2021/09/25 10:07:10;;;;;;;8.07;5.80;;;;;;;26.99;41.02;99685.73;1773860;79;21006;-66
2021/09/25 10:09:38;;;;;;;6.50;5.77;;;;;;;27.03;40.22;99690.16;1768489;79;21110;-66
2021/09/25 10:12:08;;;;;;;7.17;6.20;;;;;;;27.08;39.98;99695.92;1774139;79;20988;-65
2021/09/25 10:14:37;;;;;;;6.97;6.00;;;;;;;26.81;40.32;99704.34;1767231;80;21794;-64
2021/09/25 10:17:06;;;;;;;8.10;6.53;;;;;;;26.24;40.59;99701.34;1733987;81;21008;-65
2021/09/25 10:19:35;;;;;;;9.18;7.10;;;;;;;25.62;41.52;99706.33;1732872;81;21524;-67
2021/09/25 10:22:08;;;;;;;12.90;7.03;;;;;;;25.14;42.44;99711.98;1772338;79;21040;-66
2021/09/25 10:24:41;;;;;;;8.70;6.73;;;;;;;24.75;43.62;99711.24;1765937;80;20929;-81
2021/09/25 10:27:08;;;;;;;10.97;6.23;;;;;;;24.06;44.88;99710.61;1748093;79;21071;-67
2021/09/25 10:29:35;;;;;;;7.43;6.07;;;;;;;23.39;45.90;99699.33;1763198;79;20932;-66
2021/09/25 10:32:28;;;;;;;7.60;6.33;;;;;;;22.98;47.38;99693.05;1684775;81;21553;-65
2021/09/25 10:35:18;;;;;;;7.90;6.73;;;;;;;22.50;49.34;99690.70;1708856;82;21098;-65
2021/09/25 10:37:56;;;;;;;7.90;6.47;;;;;;;22.06;52.44;99696.23;1722487;82;21063;-64
2021/09/25 10:40:29;;;;;;;8.77;5.90;;;;;;;21.99;55.96;99694.41;1707001;82;21122;-66
2021/09/25 10:43:04;;;;;;;7.87;5.90;;;;;;;22.07;57.70;99695.70;1706094;82;21004;-64
2021/09/25 10:45:37;;;;;;;7.27;5.00;;;;;;;22.00;56.49;99699.97;1734471;82;21493;-64
2021/09/25 10:48:09;;;;;;;7.93;5.43;;;;;;;22.07;55.10;99703.13;1724676;81;20946;-64
2021/09/25 10:50:43;;;;;;;;;;;;;;;22.01;53.73;99718.01;1721185;81;20974;-64
2021/09/25 10:53:14;;;;;;;7.33;5.17;;;;;;;22.03;53.82;99722.52;1695631;83;21142;-66
2021/09/25 10:55:42;;;;;;;5.95;4.22;;;;;;;22.03;53.56;99724.64;1697884;82;21140;-80
2021/09/25 10:58:22;;;;;;;6.20;4.20;;;;;;;22.06;52.44;99725.97;1673244;83;21141;-65
2021/09/25 11:01:01;;;;;;;5.13;4.17;;;;;;;21.99;50.81;99732.09;1697700;83;21069;-63
2021/09/25 11:03:46;;;;;;;6.60;4.80;;;;;;;21.75;51.20;99732.70;1698617;82;21080;-73
2021/09/25 11:06:33;;;;;;;6.40;4.63;;;;;;;21.60;50.79;99737.52;1704676;83;22103;-71
2021/09/25 11:09:15;;;;;;;6.23;4.23;;;;;;;21.09;53.39;99740.16;1709236;81;21376;-75
2021/09/25 11:11:52;;;;;;;8.93;5.00;;;;;;;20.72;57.19;99746.22;1712993;82;21021;-70
2021/09/25 11:14:27;;;;;;;6.77;4.80;;;;;;;20.48;60.84;99750.64;1713806;82;21522;-63
2021/09/25 11:17:10;;;;;;;6.77;4.87;;;;;;;20.18;64.81;99763.23;1709233;82;21191;-63
2021/09/25 11:20:01;;;;;;;6.17;4.57;;;;;;;20.30;65.29;99773.07;1711081;82;21850;-67
2021/09/25 11:22:45;;;;;;;7.67;4.67;;;;;;;20.25;65.42;99773.06;1710276;83;21126;-66
2021/09/25 11:25:18;;;;;;;6.00;4.20;;;;;;;20.08;67.98;99769.82;1702617;81;21075;-65
2021/09/25 11:27:48;;;;;;;5.87;4.20;;;;;;;20.09;71.57;99769.55;1713181;82;21463;-77